ADDS METAR Data INFO
IDs: Format: Raw Decoded Include TAF

Data at: 0143 UTC 26 Feb 2018

KEWN 260054Z 25003KT 10SM OVC080 19/14 A3008 RMK AO2 SLP187 T01890144
KEWN 252354Z 00000KT 10SM BKN055 OVC095 20/18 A3007 RMK AO2 RAE2256 SLP183 P0000 60015 T02000183 10289 20194 51016
KEWN 252254Z 00000KT 10SM -RA BKN055 21/19 A3005 RMK AO2 RAB40 SLP177 P0000 T02060189
KEWN 252154Z 16003KT 10SM FEW029 FEW039 BKN055 22/20 A3005 RMK AO2 RAB28E51 SLP174 P0015 T02170200
KEWN 252149Z 00000KT 4SM -RA BR FEW029 FEW039 BKN055 22/20 A3004 RMK AO2 RAB28 P0015
KEWN 252135Z 33012G17KT 1 3/4SM +RA FEW032 BKN060 OVC095 22/18 A3006 RMK AO2 VIS 1V4 RAB28 PRESRR P0004 T02170183
KEWN 252054Z 20011KT 9SM FEW060 BKN080 25/18 A3003 RMK AO2 SLP167 60000 T02500183 56009
KEWN 251954Z 25008KT 10SM SCT060 SCT080 BKN110 26/16 A3003 RMK AO2 RAB36E47 SLP168 P0000 T02560161
KEWN 251854Z 26013G22KT 10SM SCT055 SCT095 28/16 A3003 RMK AO2 SLP168 T02830156
KEWN 251754Z 27013G20KT 10SM FEW049 SCT060 BKN090 27/16 A3005 RMK AO2 SLP177 T02670161 10278 20178 58017
KEWN 251654Z 23013G23KT 10SM SCT047 SCT060 27/17 A3007 RMK AO2 PK WND 26027/1634 SLP183 T02720172
KEWN 251554Z 22014G23KT 10SM FEW037 25/17 A3010 RMK AO2 SLP191 T02500172
KEWN 251454Z 23011G16KT 10SM CLR 24/18 A3011 RMK AO2 SLP194 T02390178 58002
KEWN 251354Z 22011G16KT 10SM CLR 22/18 A3011 RMK AO2 SLP195 T02170183
KEWN 251254Z 20010KT 10SM CLR 19/18 A3011 RMK AO2 SLP196 T01940178
KEWN 251221Z 20008KT 10SM SCT024 18/17 A3012 RMK AO2 T01830172
KEWN 251154Z 20007KT 10SM BKN026 BKN030 BKN035 18/17 A3011 RMK AO2 SLP196 T01780167 10183 20172 53002
KEWN 251139Z 19006KT 10SM BKN026 BKN033 17/17 A3011 RMK AO2 T01720167
KEWN 251054Z 20006KT 10SM FEW029 17/17 A3010 RMK AO2 SLP194 T01720167
KEWN 250954Z AUTO 21006KT 10SM CLR 17/17 A3010 RMK AO2 SLP193 T01720167
KEWN 250854Z AUTO 20008KT 10SM CLR 18/17 A3011 RMK AO2 SLP194 T01780172 58012
KEWN 250754Z AUTO 20006KT 10SM CLR 18/17 A3012 RMK AO2 SLP199 T01780172
KEWN 250654Z AUTO 21007KT 10SM CLR 18/17 A3013 RMK AO2 SLP203 T01780172
KEWN 250554Z AUTO 21008KT 10SM CLR 18/17 A3014 RMK AO2 SLP206 T01780172 10194 20178 55000
KEWN 250454Z AUTO 20008KT 10SM CLR 18/17 A3014 RMK AO2 SLP205 T01830172 402610128
KEWN 250354Z AUTO 21008KT 10SM CLR 18/17 A3014 RMK AO2 SLP206 T01830172
KEWN 250254Z AUTO 20008KT 10SM CLR 18/17 A3014 RMK AO2 SLP206 T01830167 50005
KEWN 250154Z 19007KT 10SM CLR 18/17 A3015 RMK AO2 SLP208 T01830167
KEWN 250054Z 19009KT 10SM CLR 19/17 A3014 RMK AO2 SLP206 T01890167
KEWN 242354Z 19006KT 10SM CLR 19/17 A3013 RMK AO2 SLP201 T01940167 10261 20194 53001
KEWN 242254Z 19008KT 10SM CLR 22/17 A3012 RMK AO2 SLP198 T02170167
KEWN 242154Z 20007KT 6SM HZ FEW037 SCT047 BKN065 24/17 A3012 RMK AO2 SLP199 T02440172
KEWN 242054Z 21005KT 10SM CLR 26/16 A3012 RMK AO2 SLP200 T02560156 56022
KEWN 241954Z 25009KT 10SM SCT045 SCT055 24/16 A3014 RMK AO2 SLP206 T02440156
KEWN 241854Z 24010KT 10SM FEW036 24/17 A3016 RMK AO2 SLP213 T02440167
KEWN 241754Z 23010KT 10SM CLR 24/17 A3019 RMK AO2 SLP222 T02440167 10244 20144 58023
KEWN 241654Z 26012KT 10SM FEW023 23/17 A3022 RMK AO2 SLP234 T02330172
KEWN 241631Z 25008KT 10SM FEW023 SCT030 22/17 A3024 RMK AO2 T02220172
KEWN 241554Z 27010KT 10SM BKN021 BKN026 22/18 A3025 RMK AO2 SLP243 T02170178
KEWN 241505Z 23010KT 10SM SCT013 OVC019 21/18 A3026 RMK AO2 T02060178
KEWN 241454Z 24008KT 10SM BKN011 BKN017 20/18 A3026 RMK AO2 SLP245 T02000178 58001
KEWN 241421Z 22008KT 10SM BKN011 OVC022 20/18 A3026 RMK AO2 T02000183
KEWN 241354Z 22006KT 10SM BKN022 BKN080 18/18 A3026 RMK AO2 SLP247 T01780178